Time;durP1;ratioP1;P1;durP2;ratioP2;P2;SDS_P1;SDS_P2;PMS_P1;PMS_P2;Temp;Humidity;BMP_temperature;BMP_pressure;BME280_temperature;BME280_humidity;BME280_pressure;Samples;Min_cycle;Max_cycle;Signal;HPM_P1;HPM_P2
2023/05/21 00:02:10;;;;;;;7.93;5.60;;;;;;;;;;5018134;28;20140;-68
2023/05/21 00:04:41;;;;;;;8.18;5.72;;;;;;;;;;5018827;28;20060;-68
2023/05/21 00:07:10;;;;;;;;;;;;;;;;;;4981965;28;1072021;-67
2023/05/21 00:09:37;;;;;;;9.48;5.18;;;;;;;;;;5019905;28;19978;-67
2023/05/21 00:12:04;;;;;;;7.43;5.70;;;;;;;;;;5018986;28;20724;-67
2023/05/21 00:14:30;;;;;;;5.93;4.95;;;;;;;;;;5034484;28;20045;-68
2023/05/21 00:16:55;;;;;;;9.35;5.68;;;;;;;;;;5018984;28;20406;-68
2023/05/21 00:19:21;;;;;;;8.18;5.28;;;;;;;;;;5019686;28;20049;-68
2023/05/21 00:21:46;;;;;;;6.30;5.18;;;;;;;;;;5019483;28;20133;-68
2023/05/21 00:24:11;;;;;;;7.47;5.05;;;;;;;;;;5017388;28;20041;-67
2023/05/21 00:26:37;;;;;;;9.50;4.72;;;;;;;;;;5012894;28;20050;-68
2023/05/21 00:29:02;;;;;;;5.32;4.35;;;;;;;;;;5018787;28;20065;-68
2023/05/21 00:31:28;;;;;;;7.18;5.13;;;;;;;;;;5019494;28;20465;-68
2023/05/21 00:33:54;;;;;;;7.25;4.65;;;;;;;;;;5017221;28;20593;-67
2023/05/21 00:36:22;;;;;;;8.90;5.10;;;;;;;;;;5002680;28;20050;-67
2023/05/21 00:38:48;;;;;;;9.10;5.18;;;;;;;;;;5018914;28;20034;-67
2023/05/21 00:41:15;;;;;;;6.38;5.10;;;;;;;;;;5034140;28;20057;-68
2023/05/21 00:43:43;;;;;;;6.88;5.10;;;;;;;;;;5018967;28;20388;-67
2023/05/21 00:46:19;;;;;;;10.93;5.70;;;;;;;;;;5017752;28;20045;-67
2023/05/21 00:48:46;;;;;;;6.82;4.93;;;;;;;;;;5017274;28;20046;-68
2023/05/21 00:51:17;;;;;;;8.48;5.18;;;;;;;;;;5018636;28;20576;-67
2023/05/21 00:53:44;;;;;;;6.03;4.95;;;;;;;;;;5016874;28;20556;-68
2023/05/21 00:56:11;;;;;;;7.22;4.97;;;;;;;;;;5017819;28;20119;-68
2023/05/21 00:58:38;;;;;;;11.00;5.53;;;;;;;;;;5034693;28;20449;-67
2023/05/21 01:01:05;;;;;;;6.85;5.10;;;;;;;;;;5015953;28;21715;-67
2023/05/21 01:03:37;;;;;;;6.63;5.28;;;;;;;;;;5010385;28;20053;-68
2023/05/21 01:06:07;;;;;;;5.40;4.85;;;;;;;;;;5017154;28;20192;-68
2023/05/21 01:08:35;;;;;;;6.75;5.53;;;;;;;;;;5020331;28;20096;-68
2023/05/21 01:11:02;;;;;;;5.75;5.05;;;;;;;;;;5020627;28;20164;-68
2023/05/21 01:13:28;;;;;;;6.43;5.20;;;;;;;;;;5018442;28;20049;-68
2023/05/21 01:15:54;;;;;;;6.40;5.18;;;;;;;;;;5037231;28;20041;-68
2023/05/21 01:18:20;;;;;;;7.57;5.50;;;;;;;;;;5038335;28;20045;-69
2023/05/21 01:20:47;;;;;;;8.30;4.97;;;;;;;;;;5021892;28;20041;-68
2023/05/21 01:23:15;;;;;;;7.80;5.70;;;;;;;;;;5037853;28;20050;-68
2023/05/21 01:25:41;;;;;;;9.77;5.65;;;;;;;;;;5036705;28;20037;-67
2023/05/21 01:28:07;;;;;;;11.63;5.78;;;;;;;;;;5022141;28;20048;-68
2023/05/21 01:30:33;;;;;;;9.43;5.40;;;;;;;;;;5021107;28;20037;-68
2023/05/21 01:33:03;;;;;;;7.03;5.15;;;;;;;;;;5021808;28;20159;-68
2023/05/21 01:35:45;;;;;;;7.47;5.88;;;;;;;;;;5018657;28;20041;-68
2023/05/21 01:38:23;;;;;;;6.50;5.53;;;;;;;;;;5021038;28;20037;-68
2023/05/21 01:41:02;;;;;;;9.68;5.88;;;;;;;;;;5021488;28;20049;-67
2023/05/21 01:43:32;;;;;;;8.93;6.03;;;;;;;;;;5037399;28;20516;-67
2023/05/21 01:45:59;;;;;;;10.88;6.25;;;;;;;;;;5021927;28;20123;-68
2023/05/21 01:48:27;;;;;;;7.88;6.13;;;;;;;;;;5036170;28;20050;-68
2023/05/21 01:50:56;;;;;;;8.23;5.88;;;;;;;;;;5017672;28;20077;-67
2023/05/21 01:53:22;;;;;;;8.40;6.32;;;;;;;;;;5021625;28;20080;-68
2023/05/21 01:55:47;;;;;;;11.82;6.43;;;;;;;;;;5036862;28;20081;-68
2023/05/21 01:58:14;;;;;;;8.82;5.80;;;;;;;;;;5036388;28;20046;-67
2023/05/21 02:00:40;;;;;;;6.88;6.10;;;;;;;;;;5016710;28;20041;-67
2023/05/21 02:03:06;;;;;;;9.65;6.50;;;;;;;;;;5019806;28;20076;-68
2023/05/21 02:05:32;;;;;;;6.85;5.55;;;;;;;;;;5037003;28;20053;-67
2023/05/21 02:08:00;;;;;;;9.70;6.00;;;;;;;;;;5021736;28;20049;-67
2023/05/21 02:10:25;;;;;;;8.82;6.07;;;;;;;;;;5019085;28;20168;-68
2023/05/21 02:12:51;;;;;;;7.45;6.05;;;;;;;;;;5019898;28;20053;-67
2023/05/21 02:15:17;;;;;;;7.13;5.90;;;;;;;;;;5021198;28;20439;-68
2023/05/21 02:17:46;;;;;;;7.50;6.10;;;;;;;;;;5019941;28;20499;-67
2023/05/21 02:20:12;;;;;;;8.23;5.30;;;;;;;;;;5020308;28;20060;-68
2023/05/21 02:22:44;;;;;;;7.93;6.13;;;;;;;;;;5019722;28;20510;-68
2023/05/21 02:25:11;;;;;;;7.35;6.07;;;;;;;;;;5020702;28;20053;-68
2023/05/21 02:27:39;;;;;;;6.68;5.50;;;;;;;;;;5019809;28;20456;-67
2023/05/21 02:30:07;;;;;;;7.38;5.88;;;;;;;;;;5036952;28;20042;-68
2023/05/21 02:32:33;;;;;;;9.23;5.80;;;;;;;;;;5018784;28;20049;-67
2023/05/21 02:35:00;;;;;;;9.70;5.70;;;;;;;;;;5020428;28;20033;-69
2023/05/21 02:37:26;;;;;;;6.95;5.32;;;;;;;;;;5019225;28;20057;-68
2023/05/21 02:39:55;;;;;;;7.28;6.20;;;;;;;;;;5020248;28;20585;-67
2023/05/21 02:42:22;;;;;;;10.80;5.47;;;;;;;;;;5035256;28;20041;-68
2023/05/21 02:44:49;;;;;;;9.13;6.00;;;;;;;;;;5035245;28;20049;-68
2023/05/21 02:47:15;;;;;;;8.25;5.95;;;;;;;;;;5036306;28;20065;-67
2023/05/21 02:49:41;;;;;;;8.50;6.30;;;;;;;;;;5019549;28;20120;-67
2023/05/21 02:52:07;;;;;;;9.85;5.93;;;;;;;;;;5035596;28;20071;-68
2023/05/21 02:54:32;;;;;;;8.15;5.38;;;;;;;;;;5019848;28;20116;-67
2023/05/21 02:56:58;;;;;;;8.50;6.07;;;;;;;;;;5015767;28;20847;-68
2023/05/21 02:59:24;;;;;;;7.05;5.70;;;;;;;;;;5019523;28;20564;-66
2023/05/21 03:01:50;;;;;;;12.18;6.50;;;;;;;;;;5035854;28;20116;-67
2023/05/21 03:04:20;;;;;;;9.18;5.95;;;;;;;;;;5015679;28;20048;-68
2023/05/21 03:06:53;;;;;;;6.88;5.90;;;;;;;;;;5018674;28;20053;-67
2023/05/21 03:09:22;;;;;;;9.02;6.10;;;;;;;;;;5035908;28;20387;-67
2023/05/21 03:11:49;;;;;;;10.93;5.57;;;;;;;;;;5035868;28;20051;-69
2023/05/21 03:14:17;;;;;;;7.20;5.80;;;;;;;;;;5017963;28;20045;-67
2023/05/21 03:16:43;;;;;;;8.10;6.07;;;;;;;;;;5015707;28;20044;-67
2023/05/21 03:19:10;;;;;;;10.60;5.47;;;;;;;;;;5020101;28;20049;-67
2023/05/21 03:21:36;;;;;;;7.15;5.55;;;;;;;;;;5035823;28;20057;-66
2023/05/21 03:24:02;;;;;;;7.18;5.97;;;;;;;;;;5020004;28;20052;-68
2023/05/21 03:26:28;;;;;;;6.90;5.65;;;;;;;;;;5018464;28;20047;-68
2023/05/21 03:28:55;;;;;;;8.55;5.57;;;;;;;;;;5034712;28;20119;-68
2023/05/21 03:31:25;;;;;;;8.05;5.53;;;;;;;;;;5035139;28;20058;-67
2023/05/21 03:34:20;;;;;;;8.30;5.38;;;;;;;;;;5017299;28;20132;-68
2023/05/21 03:36:47;;;;;;;9.43;6.28;;;;;;;;;;5032864;28;20045;-67
2023/05/21 03:39:14;;;;;;;9.80;5.65;;;;;;;;;;5035276;28;20052;-67
2023/05/21 03:41:39;;;;;;;7.88;5.93;;;;;;;;;;5035142;28;20053;-67
2023/05/21 03:44:09;;;;;;;8.73;5.38;;;;;;;;;;5035175;28;20522;-69
2023/05/21 03:46:45;;;;;;;8.68;5.28;;;;;;;;;;5034845;28;20050;-72
2023/05/21 03:49:19;;;;;;;8.00;6.18;;;;;;;;;;5014946;28;20457;-67
2023/05/21 03:51:46;;;;;;;7.72;6.25;;;;;;;;;;5016640;28;20057;-68
2023/05/21 03:54:14;;;;;;;6.63;5.78;;;;;;;;;;5034617;28;20041;-67
2023/05/21 03:56:40;;;;;;;7.45;6.03;;;;;;;;;;5034946;28;20045;-67
2023/05/21 03:59:06;;;;;;;6.40;5.30;;;;;;;;;;5017465;28;20056;-68
2023/05/21 04:01:32;;;;;;;8.68;5.90;;;;;;;;;;5032344;28;20427;-67
2023/05/21 04:03:58;;;;;;;6.80;5.38;;;;;;;;;;5015100;28;20503;-68
2023/05/21 04:06:25;;;;;;;9.20;6.22;;;;;;;;;;5034731;28;20038;-68
2023/05/21 04:08:51;;;;;;;8.15;5.53;;;;;;;;;;5017822;28;20459;-67
2023/05/21 04:11:16;;;;;;;6.70;5.22;;;;;;;;;;5016318;28;20057;-68
2023/05/21 04:13:41;;;;;;;8.57;5.50;;;;;;;;;;5034834;28;20061;-69
2023/05/21 04:16:08;;;;;;;10.00;5.60;;;;;;;;;;5019256;28;20045;-68
2023/05/21 04:18:34;;;;;;;6.88;5.65;;;;;;;;;;5034538;28;20064;-67
2023/05/21 04:21:01;;;;;;;7.38;5.72;;;;;;;;;;5033617;28;20046;-67
2023/05/21 04:23:27;;;;;;;10.63;7.00;;;;;;;;;;5034542;28;20580;-68
2023/05/21 04:25:54;;;;;;;10.57;5.90;;;;;;;;;;5016523;28;20116;-68
2023/05/21 04:28:20;;;;;;;6.78;5.97;;;;;;;;;;5012378;28;20041;-67
2023/05/21 04:30:46;;;;;;;7.32;6.07;;;;;;;;;;5028544;28;20061;-68
2023/05/21 04:33:16;;;;;;;7.93;5.68;;;;;;;;;;5013628;28;20143;-67
2023/05/21 04:35:43;;;;;;;9.73;6.03;;;;;;;;;;4986908;28;20045;-67
2023/05/21 04:38:09;;;;;;;6.68;5.25;;;;;;;;;;5031504;28;20383;-68
2023/05/21 04:40:34;;;;;;;9.07;5.97;;;;;;;;;;5016958;28;20156;-68
2023/05/21 04:43:00;;;;;;;7.47;6.20;;;;;;;;;;5034140;28;20139;-66
2023/05/21 04:45:27;;;;;;;9.23;5.75;;;;;;;;;;5020660;28;20046;-67
2023/05/21 04:47:53;;;;;;;8.38;5.57;;;;;;;;;;5017928;28;20045;-68
2023/05/21 04:50:19;;;;;;;6.00;5.10;;;;;;;;;;5016073;28;20103;-68
2023/05/21 04:52:44;;;;;;;7.70;5.45;;;;;;;;;;5035230;28;20443;-69
2023/05/21 04:55:11;;;;;;;6.20;5.60;;;;;;;;;;5013823;28;20072;-68
2023/05/21 04:57:36;;;;;;;6.57;5.60;;;;;;;;;;5020620;28;20037;-69
2023/05/21 05:00:04;;;;;;;6.63;5.55;;;;;;;;;;5035472;28;20057;-68
2023/05/21 05:02:35;;;;;;;6.72;5.07;;;;;;;;;;5020539;28;20053;-68
2023/05/21 05:05:01;;;;;;;6.57;5.30;;;;;;;;;;5014313;28;20399;-67
2023/05/21 05:07:27;;;;;;;6.60;5.90;;;;;;;;;;5031734;28;20072;-67
2023/05/21 05:09:52;;;;;;;6.32;5.22;;;;;;;;;;5013863;28;20061;-68
2023/05/21 05:12:17;;;;;;;6.60;5.53;;;;;;;;;;5028750;28;20528;-69
2023/05/21 05:14:43;;;;;;;7.53;5.78;;;;;;;;;;5014484;28;20053;-68
2023/05/21 05:17:13;;;;;;;7.18;5.43;;;;;;;;;;5019074;28;20095;-67
2023/05/21 05:19:39;;;;;;;6.65;5.00;;;;;;;;;;5019394;28;20061;-68
2023/05/21 05:22:04;;;;;;;7.55;5.80;;;;;;;;;;5021322;28;20488;-67
2023/05/21 05:24:29;;;;;;;7.00;5.25;;;;;;;;;;5036860;28;20037;-68
2023/05/21 05:26:55;;;;;;;9.73;5.40;;;;;;;;;;5033520;28;20037;-69
2023/05/21 05:29:21;;;;;;;5.85;4.65;;;;;;;;;;5037519;28;20045;-68
2023/05/21 05:31:46;;;;;;;7.22;4.82;;;;;;;;;;5019462;28;20056;-68
2023/05/21 05:34:14;;;;;;;7.32;4.75;;;;;;;;;;5020451;28;20040;-67
2023/05/21 05:36:40;;;;;;;5.88;4.90;;;;;;;;;;5021702;28;20041;-68
2023/05/21 05:39:06;;;;;;;7.30;5.18;;;;;;;;;;5019681;28;20092;-69
2023/05/21 05:41:32;;;;;;;7.28;5.30;;;;;;;;;;5021823;28;21097;-68
2023/05/21 05:43:57;;;;;;;7.68;4.90;;;;;;;;;;5020376;28;20037;-69
2023/05/21 05:46:25;;;;;;;5.15;4.43;;;;;;;;;;5020829;28;20399;-68
2023/05/21 05:48:51;;;;;;;6.65;4.80;;;;;;;;;;5035938;28;20042;-67
2023/05/21 05:51:16;;;;;;;6.10;4.90;;;;;;;;;;5037559;28;20426;-68
2023/05/21 05:53:42;;;;;;;6.55;5.22;;;;;;;;;;5036940;28;20041;-69
2023/05/21 05:56:07;;;;;;;6.60;5.05;;;;;;;;;;5037479;28;20160;-68
2023/05/21 05:58:33;;;;;;;7.38;5.22;;;;;;;;;;5021873;28;20094;-70
2023/05/21 06:01:07;;;;;;;5.18;4.65;;;;;;;;;;5012511;28;20111;-67
2023/05/21 06:03:33;;;;;;;5.72;4.63;;;;;;;;;;5020173;28;20891;-68
2023/05/21 06:06:08;;;;;;;9.65;4.90;;;;;;;;;;5019895;28;20071;-70
2023/05/21 06:08:34;;;;;;;5.55;4.88;;;;;;;;;;5013507;28;20073;-68
2023/05/21 06:11:00;;;;;;;5.60;4.60;;;;;;;;;;5004080;28;20095;-68
2023/05/21 06:13:26;;;;;;;6.78;4.75;;;;;;;;;;5015202;28;20045;-69
2023/05/21 06:15:52;;;;;;;6.10;4.95;;;;;;;;;;5033630;28;20074;-68
2023/05/21 06:18:17;;;;;;;5.75;5.13;;;;;;;;;;5019188;28;20044;-68
2023/05/21 06:20:43;;;;;;;6.45;4.70;;;;;;;;;;5019824;28;20049;-69
2023/05/21 06:23:09;;;;;;;6.43;4.97;;;;;;;;;;5030033;28;20380;-68
2023/05/21 06:25:35;;;;;;;6.20;4.70;;;;;;;;;;5019345;28;20064;-68
2023/05/21 06:28:00;;;;;;;6.18;4.65;;;;;;;;;;5035673;28;20128;-67
2023/05/21 06:30:28;;;;;;;6.88;5.20;;;;;;;;;;5030513;28;20042;-68
2023/05/21 06:32:53;;;;;;;7.05;5.03;;;;;;;;;;5027916;28;20037;-68
2023/05/21 06:35:19;;;;;;;6.95;4.85;;;;;;;;;;5015533;28;20056;-68
2023/05/21 06:37:45;;;;;;;6.13;4.90;;;;;;;;;;5036463;28;20045;-68
2023/05/21 06:40:11;;;;;;;5.97;4.70;;;;;;;;;;5021083;28;20498;-67
2023/05/21 06:42:38;;;;;;;6.63;4.57;;;;;;;;;;5033183;28;20052;-69
2023/05/21 06:45:26;;;;;;;5.20;4.10;;;;;;;;;;5024999;28;20067;-67
2023/05/21 06:47:57;;;;;;;5.97;5.10;;;;;;;;;;5028510;28;20091;-68
2023/05/21 06:50:22;;;;;;;8.70;4.55;;;;;;;;;;5028582;28;20077;-68
2023/05/21 06:52:49;;;;;;;4.97;4.47;;;;;;;;;;5017833;28;20793;-68
2023/05/21 06:55:15;;;;;;;5.50;4.45;;;;;;;;;;5030639;28;20052;-67
2023/05/21 06:58:06;;;;;;;6.40;4.95;;;;;;;;;;5014216;28;20092;-68
2023/05/21 07:00:32;;;;;;;6.65;4.90;;;;;;;;;;5016551;28;20073;-68
2023/05/21 07:02:57;;;;;;;6.05;4.45;;;;;;;;;;5032966;28;20076;-67
2023/05/21 07:05:24;;;;;;;8.50;5.03;;;;;;;;;;5026995;28;20045;-66
2023/05/21 07:07:49;;;;;;;6.03;4.70;;;;;;;;;;5017525;28;20049;-68
2023/05/21 07:10:15;;;;;;;5.85;4.80;;;;;;;;;;5029043;28;20064;-69
2023/05/21 07:12:40;;;;;;;5.85;4.30;;;;;;;;;;5017239;28;20596;-68
2023/05/21 07:15:07;;;;;;;12.18;4.70;;;;;;;;;;4984894;28;20050;-67
2023/05/21 07:17:33;;;;;;;5.90;4.63;;;;;;;;;;5017749;28;20094;-68
2023/05/21 07:20:00;;;;;;;10.88;5.13;;;;;;;;;;5006375;28;20103;-67
2023/05/21 07:22:27;;;;;;;6.85;4.90;;;;;;;;;;5014574;28;20041;-68
2023/05/21 07:24:52;;;;;;;5.78;4.68;;;;;;;;;;5015578;28;20057;-66
2023/05/21 07:27:18;;;;;;;6.78;4.47;;;;;;;;;;5017013;28;20502;-67
2023/05/21 07:29:45;;;;;;;5.35;4.43;;;;;;;;;;5003052;28;20075;-68
2023/05/21 07:32:10;;;;;;;6.45;4.40;;;;;;;;;;5013443;28;20049;-66
2023/05/21 07:34:36;;;;;;;8.57;4.63;;;;;;;;;;4997340;28;20057;-66
2023/05/21 07:37:02;;;;;;;5.97;4.60;;;;;;;;;;5012118;28;20042;-68
2023/05/21 07:39:27;;;;;;;6.07;4.70;;;;;;;;;;5006907;28;20065;-68
2023/05/21 07:41:53;;;;;;;4.90;4.40;;;;;;;;;;4996935;28;20100;-66
2023/05/21 07:44:19;;;;;;;5.82;4.97;;;;;;;;;;5008718;28;20818;-67
2023/05/21 07:46:46;;;;;;;6.00;4.40;;;;;;;;;;4994278;28;20141;-67
2023/05/21 07:49:15;;;;;;;6.80;4.60;;;;;;;;;;5033729;28;20049;-67
2023/05/21 07:51:42;;;;;;;4.60;4.20;;;;;;;;;;5011043;28;21030;-70
2023/05/21 07:54:08;;;;;;;5.57;4.97;;;;;;;;;;5006786;28;20050;-68
2023/05/21 07:56:35;;;;;;;6.80;4.72;;;;;;;;;;4999152;28;20046;-68
2023/05/21 07:59:01;;;;;;;7.70;4.93;;;;;;;;;;5014782;28;20049;-69
2023/05/21 08:01:28;;;;;;;5.30;4.80;;;;;;;;;;4998136;28;20525;-68
2023/05/21 08:03:54;;;;;;;6.38;4.82;;;;;;;;;;4998639;28;20045;-68
2023/05/21 08:06:21;;;;;;;7.20;4.63;;;;;;;;;;4998630;28;20100;-69
2023/05/21 08:08:46;;;;;;;7.40;4.47;;;;;;;;;;4999775;28;20056;-66
2023/05/21 08:11:12;;;;;;;5.85;4.68;;;;;;;;;;4984245;28;20053;-68
2023/05/21 08:13:37;;;;;;;6.00;4.40;;;;;;;;;;5015703;28;20068;-67
2023/05/21 08:16:05;;;;;;;6.57;4.68;;;;;;;;;;5030872;28;20050;-68
2023/05/21 08:18:30;;;;;;;4.97;4.50;;;;;;;;;;5021168;28;20042;-68
2023/05/21 08:20:56;;;;;;;6.15;4.93;;;;;;;;;;5014434;28;20573;-68
2023/05/21 08:23:23;;;;;;;6.63;4.30;;;;;;;;;;5019981;28;20048;-67
2023/05/21 08:25:52;;;;;;;6.95;4.82;;;;;;;;;;5020088;28;20037;-67
2023/05/21 08:28:21;;;;;;;9.35;4.88;;;;;;;;;;5020392;28;20033;-68
2023/05/21 08:30:47;;;;;;;5.55;5.03;;;;;;;;;;5015035;28;20041;-72
2023/05/21 08:33:14;;;;;;;6.60;4.90;;;;;;;;;;5011808;28;20045;-66
2023/05/21 08:35:40;;;;;;;6.80;4.40;;;;;;;;;;5034550;28;20985;-67
2023/05/21 08:38:19;;;;;;;5.90;4.78;;;;;;;;;;5033668;28;20612;-67
2023/05/21 08:40:58;;;;;;;5.40;4.78;;;;;;;;;;5013627;28;20073;-67
2023/05/21 08:43:27;;;;;;;5.28;4.72;;;;;;;;;;5014947;28;20395;-67
2023/05/21 08:45:56;;;;;;;7.35;5.00;;;;;;;;;;5014142;28;21102;-66
2023/05/21 08:48:24;;;;;;;5.93;4.00;;;;;;;;;;5034519;28;20045;-69
2023/05/21 08:50:51;;;;;;;6.05;4.78;;;;;;;;;;5010943;28;20096;-67
2023/05/21 08:53:22;;;;;;;5.03;4.13;;;;;;;;;;5018435;28;20123;-67
2023/05/21 08:55:51;;;;;;;15.75;4.47;;;;;;;;;;5011673;28;20136;-68
2023/05/21 08:58:17;;;;;;;6.47;4.40;;;;;;;;;;5017367;28;20179;-67
2023/05/21 09:00:43;;;;;;;4.95;4.38;;;;;;;;;;5032957;28;20395;-67
2023/05/21 09:03:12;;;;;;;7.60;4.68;;;;;;;;;;5018709;28;21134;-67
2023/05/21 09:05:43;;;;;;;4.63;4.15;;;;;;;;;;5035863;28;20387;-67
2023/05/21 09:08:15;;;;;;;7.55;4.65;;;;;;;;;;5018417;28;20054;-66
2023/05/21 09:10:50;;;;;;;6.55;4.63;;;;;;;;;;5017299;28;20132;-69
2023/05/21 09:13:18;;;;;;;8.52;4.57;;;;;;;;;;5036124;28;20041;-69
2023/05/21 09:15:46;;;;;;;8.80;5.25;;;;;;;;;;5002773;28;20131;-66
2023/05/21 09:18:13;;;;;;;4.40;4.00;;;;;;;;;;5017782;28;20052;-66
2023/05/21 09:20:48;;;;;;;4.97;4.13;;;;;;;;;;5012074;28;20049;-66
2023/05/21 09:23:16;;;;;;;4.63;4.07;;;;;;;;;;5028866;28;20045;-66
2023/05/21 09:25:47;;;;;;;7.28;5.00;;;;;;;;;;5017813;28;20063;-66
2023/05/21 09:28:18;;;;;;;5.85;4.97;;;;;;;;;;5033815;28;20049;-67
2023/05/21 09:30:45;;;;;;;7.15;4.30;;;;;;;;;;5018763;28;20045;-67
2023/05/21 09:33:11;;;;;;;5.28;4.78;;;;;;;;;;5014830;28;20056;-67
2023/05/21 09:35:42;;;;;;;6.65;4.32;;;;;;;;;;5017943;28;20069;-67
2023/05/21 09:38:08;;;;;;;;;;;;;;;;;;5006116;28;20037;-67
2023/05/21 09:40:34;;;;;;;7.65;3.90;;;;;;;;;;5017819;28;19982;-67
2023/05/21 09:42:59;;;;;;;5.18;4.32;;;;;;;;;;5010145;28;20052;-68
2023/05/21 09:45:26;;;;;;;9.00;4.63;;;;;;;;;;5015539;28;20671;-67
2023/05/21 09:47:55;;;;;;;6.60;4.50;;;;;;;;;;5034155;28;20056;-67
2023/05/21 09:50:26;;;;;;;5.28;4.22;;;;;;;;;;5014708;28;20046;-66
2023/05/21 09:52:54;;;;;;;4.88;4.20;;;;;;;;;;5013451;28;20242;-67
2023/05/21 09:55:24;;;;;;;4.88;4.18;;;;;;;;;;5016067;28;20048;-66
2023/05/21 09:57:50;;;;;;;7.05;4.18;;;;;;;;;;5010479;28;20076;-67
2023/05/21 10:00:22;;;;;;;6.53;4.10;;;;;;;;;;5013998;28;20037;-67
2023/05/21 10:03:15;;;;;;;5.45;4.03;;;;;;;;;;5018973;28;20057;-70
2023/05/21 10:05:41;;;;;;;6.15;3.97;;;;;;;;;;5011845;28;20041;-70
2023/05/21 10:08:08;;;;;;;6.50;4.65;;;;;;;;;;5021908;28;20049;-67
2023/05/21 10:10:36;;;;;;;4.75;4.22;;;;;;;;;;5021624;28;20042;-66
2023/05/21 10:13:07;;;;;;;4.85;3.97;;;;;;;;;;5016820;28;20050;-67
2023/05/21 10:15:41;;;;;;;10.25;4.43;;;;;;;;;;5020346;28;20065;-66
2023/05/21 10:18:08;;;;;;;4.30;3.85;;;;;;;;;;5010455;28;20128;-66
2023/05/21 10:20:34;;;;;;;5.07;4.10;;;;;;;;;;5015880;28;20505;-67
2023/05/21 10:23:01;;;;;;;4.68;4.10;;;;;;;;;;5010044;28;20061;-66
2023/05/21 10:25:27;;;;;;;5.72;4.38;;;;;;;;;;5010697;28;20053;-66
2023/05/21 10:27:54;;;;;;;8.35;4.07;;;;;;;;;;5012597;28;20068;-67
2023/05/21 10:30:20;;;;;;;4.40;4.00;;;;;;;;;;5014478;28;20079;-66
2023/05/21 10:32:47;;;;;;;5.07;4.57;;;;;;;;;;5009843;28;20045;-68
2023/05/21 10:35:15;;;;;;;8.95;4.65;;;;;;;;;;5010546;28;20086;-67
2023/05/21 10:37:42;;;;;;;10.93;4.05;;;;;;;;;;5014773;28;20045;-67
2023/05/21 10:40:08;;;;;;;4.40;4.00;;;;;;;;;;5010022;28;20069;-65
2023/05/21 10:42:34;;;;;;;6.13;3.45;;;;;;;;;;5013094;28;20417;-66
2023/05/21 10:45:03;;;;;;;5.28;3.92;;;;;;;;;;5009898;28;20058;-66
2023/05/21 10:47:36;;;;;;;4.22;3.83;;;;;;;;;;5030513;28;20041;-67
2023/05/21 10:50:08;;;;;;;5.68;4.00;;;;;;;;;;5019709;28;20046;-66
2023/05/21 10:52:38;;;;;;;5.50;4.18;;;;;;;;;;5021202;28;20048;-68
2023/05/21 10:55:30;;;;;;;4.10;3.70;;;;;;;;;;5019946;28;20076;-68
2023/05/21 10:58:18;;;;;;;5.82;4.07;;;;;;;;;;5016841;28;20128;-67
2023/05/21 11:00:44;;;;;;;4.32;3.60;;;;;;;;;;5020361;28;20053;-68
2023/05/21 11:03:12;;;;;;;9.63;3.80;;;;;;;;;;5018876;28;20050;-67
2023/05/21 11:05:51;;;;;;;9.70;3.88;;;;;;;;;;5018256;28;20052;-67
2023/05/21 11:08:23;;;;;;;5.15;4.13;;;;;;;;;;5019547;28;20103;-68
2023/05/21 11:10:57;;;;;;;5.85;4.05;;;;;;;;;;5017885;28;20053;-69
2023/05/21 11:13:26;;;;;;;4.97;3.67;;;;;;;;;;5039327;28;20491;-67
2023/05/21 11:16:15;;;;;;;4.07;3.67;;;;;;;;;;5020084;28;20053;-67
2023/05/21 11:18:40;;;;;;;4.28;3.85;;;;;;;;;;5015776;28;20046;-66
2023/05/21 11:21:09;;;;;;;5.03;4.00;;;;;;;;;;5016107;28;20042;-67
2023/05/21 11:24:03;;;;;;;4.55;4.05;;;;;;;;;;5019997;28;20049;-66
2023/05/21 11:26:54;;;;;;;8.80;3.80;;;;;;;;;;5020523;28;20072;-68
2023/05/21 11:29:19;;;;;;;5.97;3.77;;;;;;;;;;5027339;28;20052;-68
2023/05/21 11:31:47;;;;;;;6.40;4.07;;;;;;;;;;5019919;28;20056;-67
2023/05/21 11:34:18;;;;;;;9.13;4.53;;;;;;;;;;5020129;28;20124;-68
2023/05/21 11:36:46;;;;;;;5.78;4.20;;;;;;;;;;5016129;28;20041;-68
2023/05/21 11:39:20;;;;;;;6.53;3.75;;;;;;;;;;5014007;28;20068;-66
2023/05/21 11:41:57;;;;;;;5.85;3.40;;;;;;;;;;5013442;28;20045;-68
2023/05/21 11:44:41;;;;;;;7.18;3.60;;;;;;;;;;5018871;28;20045;-69
2023/05/21 11:47:17;;;;;;;6.38;3.60;;;;;;;;;;5019471;28;20061;-70
2023/05/21 11:49:43;;;;;;;9.05;3.95;;;;;;;;;;5012758;28;20499;-69
2023/05/21 11:52:10;;;;;;;5.38;4.00;;;;;;;;;;5012040;28;20431;-68
2023/05/21 11:54:55;;;;;;;4.20;3.70;;;;;;;;;;5011357;28;20116;-67
2023/05/21 11:57:22;;;;;;;4.57;3.67;;;;;;;;;;5027481;28;20064;-71
2023/05/21 11:59:52;;;;;;;4.97;4.50;;;;;;;;;;5005299;28;20466;-68
2023/05/21 12:02:19;;;;;;;6.18;4.15;;;;;;;;;;4998804;28;20394;-67
2023/05/21 12:04:47;;;;;;;5.15;3.75;;;;;;;;;;4988561;28;20054;-68
2023/05/21 12:07:14;;;;;;;4.88;4.45;;;;;;;;;;4988606;28;20046;-67
2023/05/21 12:09:44;;;;;;;7.32;4.05;;;;;;;;;;4989205;28;20061;-72
2023/05/21 12:12:13;;;;;;;4.13;3.72;;;;;;;;;;4990488;28;20095;-69
2023/05/21 12:14:39;;;;;;;9.65;3.97;;;;;;;;;;4994280;28;20045;-67
2023/05/21 12:17:06;;;;;;;7.72;4.10;;;;;;;;;;4989125;28;20046;-70
2023/05/21 12:19:36;;;;;;;5.70;4.10;;;;;;;;;;4999628;28;20096;-68
2023/05/21 12:22:03;;;;;;;5.45;4.47;;;;;;;;;;5000332;28;20565;-68
2023/05/21 12:24:29;;;;;;;6.13;4.55;;;;;;;;;;4996931;28;20054;-70
2023/05/21 12:26:58;;;;;;;5.13;4.35;;;;;;;;;;4990797;28;20050;-71
2023/05/21 12:29:25;;;;;;;8.73;4.15;;;;;;;;;;4988682;28;20096;-68
2023/05/21 12:31:50;;;;;;;8.10;4.47;;;;;;;;;;4988326;28;20065;-68
2023/05/21 12:34:36;;;;;;;6.72;4.82;;;;;;;;;;4995792;28;20080;-71
2023/05/21 12:37:01;;;;;;;7.78;5.18;;;;;;;;;;4995333;28;20054;-68
2023/05/21 12:39:29;;;;;;;5.32;4.22;;;;;;;;;;4990599;28;20046;-69
2023/05/21 12:41:54;;;;;;;9.88;4.40;;;;;;;;;;4997213;28;20569;-71
2023/05/21 12:44:19;;;;;;;5.20;4.43;;;;;;;;;;4994215;28;20050;-67
2023/05/21 12:46:45;;;;;;;5.18;3.78;;;;;;;;;;4990638;28;20084;-68
2023/05/21 12:49:32;;;;;;;4.50;4.10;;;;;;;;;;4991142;28;20056;-70
2023/05/21 12:51:58;;;;;;;6.22;4.20;;;;;;;;;;4997515;28;20038;-69
2023/05/21 12:54:32;;;;;;;5.15;4.35;;;;;;;;;;4997695;28;20048;-67
2023/05/21 12:57:08;;;;;;;7.20;4.43;;;;;;;;;;4995534;28;20057;-67
2023/05/21 12:59:51;;;;;;;4.30;3.90;;;;;;;;;;4998105;28;20053;-67
2023/05/21 13:02:39;;;;;;;6.53;3.67;;;;;;;;;;4994597;28;20045;-69
2023/05/21 13:05:07;;;;;;;5.78;3.70;;;;;;;;;;4998388;28;20042;-68
2023/05/21 13:07:34;;;;;;;6.70;4.20;;;;;;;;;;4997176;28;20078;-68
2023/05/21 13:10:01;;;;;;;8.35;3.55;;;;;;;;;;4997823;28;20060;-69
2023/05/21 13:12:30;;;;;;;5.57;3.90;;;;;;;;;;5002549;28;20045;-68
2023/05/21 13:14:57;;;;;;;4.80;4.30;;;;;;;;;;5001975;28;20613;-68
2023/05/21 13:17:24;;;;;;;7.07;3.80;;;;;;;;;;5003219;28;20047;-68
2023/05/21 13:20:07;;;;;;;4.35;3.80;;;;;;;;;;4996808;28;20399;-69
2023/05/21 13:22:41;;;;;;;5.80;3.40;;;;;;;;;;5002158;28;20041;-68
2023/05/21 13:25:10;;;;;;;6.07;4.05;;;;;;;;;;5001995;28;20049;-68
2023/05/21 13:27:36;;;;;;;7.82;3.33;;;;;;;;;;5002859;28;20181;-71
2023/05/21 13:30:04;;;;;;;5.00;3.60;;;;;;;;;;5003091;28;20127;-70
2023/05/21 13:32:30;;;;;;;3.92;3.50;;;;;;;;;;5001643;28;20041;-70
2023/05/21 13:34:55;;;;;;;7.13;3.55;;;;;;;;;;5001582;28;20085;-70
2023/05/21 13:37:20;;;;;;;5.30;4.00;;;;;;;;;;5002786;28;20049;-68
2023/05/21 13:39:46;;;;;;;4.28;3.60;;;;;;;;;;5002407;28;20111;-69
2023/05/21 13:42:12;;;;;;;6.35;4.00;;;;;;;;;;4998276;28;20680;-70
2023/05/21 13:44:37;;;;;;;5.10;3.55;;;;;;;;;;4994840;28;20084;-67
2023/05/21 13:47:03;;;;;;;5.70;3.70;;;;;;;;;;5001746;28;20128;-69
2023/05/21 13:49:29;;;;;;;6.57;3.58;;;;;;;;;;5001142;28;20049;-70
2023/05/21 13:51:54;;;;;;;6.10;3.80;;;;;;;;;;5002442;28;20384;-70
2023/05/21 13:54:20;;;;;;;4.55;4.05;;;;;;;;;;5016486;28;20553;-68
2023/05/21 13:56:46;;;;;;;5.57;4.18;;;;;;;;;;5002380;28;20045;-68
2023/05/21 13:59:11;;;;;;;6.60;4.20;;;;;;;;;;5001806;28;20057;-69
2023/05/21 14:01:37;;;;;;;4.57;3.70;;;;;;;;;;5002062;28;20057;-69
2023/05/21 14:04:04;;;;;;;3.50;3.10;;;;;;;;;;5001207;28;20060;-67
2023/05/21 14:06:34;;;;;;;5.70;3.50;;;;;;;;;;5002006;28;20042;-67
2023/05/21 14:08:59;;;;;;;4.15;3.10;;;;;;;;;;5001426;28;20146;-68
2023/05/21 14:11:26;;;;;;;4.03;3.70;;;;;;;;;;5002422;28;20050;-67
2023/05/21 14:13:52;;;;;;;4.60;3.53;;;;;;;;;;5015943;28;20141;-68
2023/05/21 14:16:18;;;;;;;5.22;3.53;;;;;;;;;;4993653;28;20552;-69
2023/05/21 14:18:43;;;;;;;3.83;3.35;;;;;;;;;;4998554;28;20061;-69
2023/05/21 14:21:09;;;;;;;4.97;3.67;;;;;;;;;;5000506;28;20045;-68
2023/05/21 14:23:34;;;;;;;4.05;3.55;;;;;;;;;;5001743;28;20054;-68
2023/05/21 14:26:00;;;;;;;4.95;3.70;;;;;;;;;;4996767;28;20511;-69
2023/05/21 14:28:25;;;;;;;5.13;3.72;;;;;;;;;;5000741;28;20058;-68
2023/05/21 14:30:50;;;;;;;3.92;3.53;;;;;;;;;;4998710;28;20052;-72
2023/05/21 14:33:16;;;;;;;5.53;3.58;;;;;;;;;;5000565;28;20691;-70
2023/05/21 14:35:42;;;;;;;4.43;3.60;;;;;;;;;;4999592;28;20049;-71
2023/05/21 14:38:09;;;;;;;6.40;3.50;;;;;;;;;;4996841;28;20199;-70
2023/05/21 14:40:35;;;;;;;5.63;3.88;;;;;;;;;;5000799;28;20053;-70
2023/05/21 14:43:01;;;;;;;7.95;4.32;;;;;;;;;;4957935;28;20526;-69
2023/05/21 14:45:27;;;;;;;5.88;4.65;;;;;;;;;;4992494;28;20456;-71
2023/05/21 14:47:52;;;;;;;18.25;5.57;;;;;;;;;;4988111;28;20633;-68
2023/05/21 14:50:18;;;;;;;5.35;3.80;;;;;;;;;;4992468;28;20045;-68